sensor_id;sensor_type;location;lat;lon;timestamp;temperature;humidity
26378;DHT22;14078;50.974;6.786;2023-01-16T00:02:11;6.20;1.00
26378;DHT22;14078;50.974;6.786;2023-01-16T00:04:38;6.20;1.00
26378;DHT22;14078;50.974;6.786;2023-01-16T00:07:04;6.20;1.00
26378;DHT22;14078;50.974;6.786;2023-01-16T00:09:31;6.30;1.00
26378;DHT22;14078;50.974;6.786;2023-01-16T00:11:57;6.20;1.00
26378;DHT22;14078;50.974;6.786;2023-01-16T00:14:25;6.30;1.00
26378;DHT22;14078;50.974;6.786;2023-01-16T00:16:54;6.30;1.00
26378;DHT22;14078;50.974;6.786;2023-01-16T00:19:21;6.20;1.00
26378;DHT22;14078;50.974;6.786;2023-01-16T00:21:47;6.10;1.00
26378;DHT22;14078;50.974;6.786;2023-01-16T00:24:14;6.00;1.00
26378;DHT22;14078;50.974;6.786;2023-01-16T00:26:40;5.90;1.00
26378;DHT22;14078;50.974;6.786;2023-01-16T00:29:07;5.80;1.00
26378;DHT22;14078;50.974;6.786;2023-01-16T00:31:35;5.80;1.00
26378;DHT22;14078;50.974;6.786;2023-01-16T00:34:01;5.80;1.00
26378;DHT22;14078;50.974;6.786;2023-01-16T00:36:28;5.80;1.00
26378;DHT22;14078;50.974;6.786;2023-01-16T00:38:54;5.80;1.00
26378;DHT22;14078;50.974;6.786;2023-01-16T00:41:21;5.90;99.90
26378;DHT22;14078;50.974;6.786;2023-01-16T00:43:48;6.00;99.90
26378;DHT22;14078;50.974;6.786;2023-01-16T00:46:14;6.00;99.90
26378;DHT22;14078;50.974;6.786;2023-01-16T00:48:42;6.10;1.00
26378;DHT22;14078;50.974;6.786;2023-01-16T00:51:08;6.10;1.00
26378;DHT22;14078;50.974;6.786;2023-01-16T00:53:35;6.10;1.00
26378;DHT22;14078;50.974;6.786;2023-01-16T00:56:02;6.20;99.90
26378;DHT22;14078;50.974;6.786;2023-01-16T00:58:28;6.20;3.20
26378;DHT22;14078;50.974;6.786;2023-01-16T01:00:55;6.20;99.90
26378;DHT22;14078;50.974;6.786;2023-01-16T01:03:21;6.20;99.90
26378;DHT22;14078;50.974;6.786;2023-01-16T01:05:49;6.20;99.90
26378;DHT22;14078;50.974;6.786;2023-01-16T01:08:16;6.30;99.90
26378;DHT22;14078;50.974;6.786;2023-01-16T01:10:42;6.30;1.00
26378;DHT22;14078;50.974;6.786;2023-01-16T01:13:09;6.30;1.00
26378;DHT22;14078;50.974;6.786;2023-01-16T01:15:35;6.20;1.00
26378;DHT22;14078;50.974;6.786;2023-01-16T01:18:02;6.10;1.00
26378;DHT22;14078;50.974;6.786;2023-01-16T01:20:29;6.00;1.00
26378;DHT22;14078;50.974;6.786;2023-01-16T01:22:57;5.90;29.80
26378;DHT22;14078;50.974;6.786;2023-01-16T01:25:24;5.90;43.40
26378;DHT22;14078;50.974;6.786;2023-01-16T01:27:50;5.90;65.30
26378;DHT22;14078;50.974;6.786;2023-01-16T01:30:17;5.80;78.10
26378;DHT22;14078;50.974;6.786;2023-01-16T01:32:44;5.80;87.30
26378;DHT22;14078;50.974;6.786;2023-01-16T01:35:10;5.80;92.20
26378;DHT22;14078;50.974;6.786;2023-01-16T01:37:37;5.80;99.90
26378;DHT22;14078;50.974;6.786;2023-01-16T01:40:06;5.70;99.90
26378;DHT22;14078;50.974;6.786;2023-01-16T01:42:36;5.70;99.90
26378;DHT22;14078;50.974;6.786;2023-01-16T01:45:18;5.70;99.90
26378;DHT22;14078;50.974;6.786;2023-01-16T01:47:46;5.70;99.90
26378;DHT22;14078;50.974;6.786;2023-01-16T01:50:17;5.70;96.30
26378;DHT22;14078;50.974;6.786;2023-01-16T01:52:45;5.70;85.20
26378;DHT22;14078;50.974;6.786;2023-01-16T01:55:13;5.70;76.90
26378;DHT22;14078;50.974;6.786;2023-01-16T01:57:42;5.80;77.30
26378;DHT22;14078;50.974;6.786;2023-01-16T02:00:10;5.70;66.90
26378;DHT22;14078;50.974;6.786;2023-01-16T02:02:39;5.70;72.10
26378;DHT22;14078;50.974;6.786;2023-01-16T02:05:09;5.70;51.30
26378;DHT22;14078;50.974;6.786;2023-01-16T02:07:37;5.60;40.00
26378;DHT22;14078;50.974;6.786;2023-01-16T02:10:06;5.60;31.80
26378;DHT22;14078;50.974;6.786;2023-01-16T02:12:36;5.50;55.30
26378;DHT22;14078;50.974;6.786;2023-01-16T02:15:03;5.40;38.50
26378;DHT22;14078;50.974;6.786;2023-01-16T02:17:30;5.40;45.30
26378;DHT22;14078;50.974;6.786;2023-01-16T02:20:28;5.40;57.80
26378;DHT22;14078;50.974;6.786;2023-01-16T02:23:03;5.40;54.40
26378;DHT22;14078;50.974;6.786;2023-01-16T02:25:40;5.20;65.10
26378;DHT22;14078;50.974;6.786;2023-01-16T02:28:25;5.20;66.50
26378;DHT22;14078;50.974;6.786;2023-01-16T02:31:04;5.10;88.70
26378;DHT22;14078;50.974;6.786;2023-01-16T02:33:37;5.00;95.50
26378;DHT22;14078;50.974;6.786;2023-01-16T02:36:07;5.00;93.60
26378;DHT22;14078;50.974;6.786;2023-01-16T02:38:41;5.00;84.60
26378;DHT22;14078;50.974;6.786;2023-01-16T02:41:14;5.10;58.70
26378;DHT22;14078;50.974;6.786;2023-01-16T02:43:44;5.00;56.60
26378;DHT22;14078;50.974;6.786;2023-01-16T02:46:18;4.90;79.30
26378;DHT22;14078;50.974;6.786;2023-01-16T02:48:47;4.90;86.40
26378;DHT22;14078;50.974;6.786;2023-01-16T02:51:19;4.80;97.20
26378;DHT22;14078;50.974;6.786;2023-01-16T02:53:48;4.80;99.90
26378;DHT22;14078;50.974;6.786;2023-01-16T02:56:19;4.80;99.90
26378;DHT22;14078;50.974;6.786;2023-01-16T02:58:46;4.80;99.90
26378;DHT22;14078;50.974;6.786;2023-01-16T03:01:13;4.90;99.90
26378;DHT22;14078;50.974;6.786;2023-01-16T03:03:46;4.80;99.90
26378;DHT22;14078;50.974;6.786;2023-01-16T03:09:15;4.80;99.90
26378;DHT22;14078;50.974;6.786;2023-01-16T03:11:46;4.70;99.90
26378;DHT22;14078;50.974;6.786;2023-01-16T03:14:19;4.70;99.90
26378;DHT22;14078;50.974;6.786;2023-01-16T03:16:50;4.60;99.90
26378;DHT22;14078;50.974;6.786;2023-01-16T03:19:22;4.50;99.90
26378;DHT22;14078;50.974;6.786;2023-01-16T03:21:53;4.50;99.90
26378;DHT22;14078;50.974;6.786;2023-01-16T03:24:26;4.50;99.90
26378;DHT22;14078;50.974;6.786;2023-01-16T03:26:54;4.40;99.90
26378;DHT22;14078;50.974;6.786;2023-01-16T03:29:24;4.40;99.90
26378;DHT22;14078;50.974;6.786;2023-01-16T03:31:54;4.40;99.90
26378;DHT22;14078;50.974;6.786;2023-01-16T03:34:25;4.40;99.90
26378;DHT22;14078;50.974;6.786;2023-01-16T03:36:56;4.30;99.90
26378;DHT22;14078;50.974;6.786;2023-01-16T03:39:23;4.30;99.90
26378;DHT22;14078;50.974;6.786;2023-01-16T03:41:52;4.40;99.90
26378;DHT22;14078;50.974;6.786;2023-01-16T03:44:21;4.40;99.90
26378;DHT22;14078;50.974;6.786;2023-01-16T03:46:50;4.40;99.90
26378;DHT22;14078;50.974;6.786;2023-01-16T03:49:17;4.50;99.90
26378;DHT22;14078;50.974;6.786;2023-01-16T03:51:47;4.50;99.90
26378;DHT22;14078;50.974;6.786;2023-01-16T03:54:16;4.60;99.90
26378;DHT22;14078;50.974;6.786;2023-01-16T03:56:48;4.60;99.90
26378;DHT22;14078;50.974;6.786;2023-01-16T03:59:15;4.70;99.90
26378;DHT22;14078;50.974;6.786;2023-01-16T04:01:43;4.60;99.90
26378;DHT22;14078;50.974;6.786;2023-01-16T04:04:15;4.50;99.90
26378;DHT22;14078;50.974;6.786;2023-01-16T04:06:44;4.40;99.90
26378;DHT22;14078;50.974;6.786;2023-01-16T04:09:13;4.30;99.90
26378;DHT22;14078;50.974;6.786;2023-01-16T04:11:42;4.30;99.90
26378;DHT22;14078;50.974;6.786;2023-01-16T04:14:12;4.30;99.90
26378;DHT22;14078;50.974;6.786;2023-01-16T04:16:39;4.30;99.90
26378;DHT22;14078;50.974;6.786;2023-01-16T04:19:08;4.20;99.90
26378;DHT22;14078;50.974;6.786;2023-01-16T04:21:36;4.20;99.90
26378;DHT22;14078;50.974;6.786;2023-01-16T04:24:03;4.20;99.90
26378;DHT22;14078;50.974;6.786;2023-01-16T04:26:31;4.20;99.90
26378;DHT22;14078;50.974;6.786;2023-01-16T04:28:58;4.20;99.90
26378;DHT22;14078;50.974;6.786;2023-01-16T04:31:24;4.20;99.90
26378;DHT22;14078;50.974;6.786;2023-01-16T04:33:52;4.20;99.90
26378;DHT22;14078;50.974;6.786;2023-01-16T04:36:19;4.20;99.90
26378;DHT22;14078;50.974;6.786;2023-01-16T04:38:46;4.20;99.90
26378;DHT22;14078;50.974;6.786;2023-01-16T04:41:12;4.20;99.90
26378;DHT22;14078;50.974;6.786;2023-01-16T04:44:00;4.20;99.90
26378;DHT22;14078;50.974;6.786;2023-01-16T04:46:27;4.20;99.90
26378;DHT22;14078;50.974;6.786;2023-01-16T04:48:53;4.20;99.90
26378;DHT22;14078;50.974;6.786;2023-01-16T04:51:20;4.30;99.90
26378;DHT22;14078;50.974;6.786;2023-01-16T04:53:46;4.30;99.90
26378;DHT22;14078;50.974;6.786;2023-01-16T04:56:13;4.30;99.90
26378;DHT22;14078;50.974;6.786;2023-01-16T04:58:39;4.40;99.90
26378;DHT22;14078;50.974;6.786;2023-01-16T05:01:07;4.40;99.90
26378;DHT22;14078;50.974;6.786;2023-01-16T05:03:33;4.40;99.90
26378;DHT22;14078;50.974;6.786;2023-01-16T05:06:00;4.50;99.90
26378;DHT22;14078;50.974;6.786;2023-01-16T05:08:26;4.60;99.90
26378;DHT22;14078;50.974;6.786;2023-01-16T05:10:54;4.70;99.90
26378;DHT22;14078;50.974;6.786;2023-01-16T05:13:21;4.80;99.90
26378;DHT22;14078;50.974;6.786;2023-01-16T05:15:47;4.70;99.90
26378;DHT22;14078;50.974;6.786;2023-01-16T05:18:15;4.80;99.90
26378;DHT22;14078;50.974;6.786;2023-01-16T05:20:42;4.80;99.90
26378;DHT22;14078;50.974;6.786;2023-01-16T05:23:08;4.90;99.90
26378;DHT22;14078;50.974;6.786;2023-01-16T05:25:36;4.90;99.90
26378;DHT22;14078;50.974;6.786;2023-01-16T05:28:02;5.00;99.90
26378;DHT22;14078;50.974;6.786;2023-01-16T05:30:29;5.10;99.90
26378;DHT22;14078;50.974;6.786;2023-01-16T05:32:56;5.10;99.90
26378;DHT22;14078;50.974;6.786;2023-01-16T05:35:24;5.10;99.90
26378;DHT22;14078;50.974;6.786;2023-01-16T05:37:51;5.20;99.90
26378;DHT22;14078;50.974;6.786;2023-01-16T05:40:17;5.20;99.90
26378;DHT22;14078;50.974;6.786;2023-01-16T05:42:44;5.20;99.90
26378;DHT22;14078;50.974;6.786;2023-01-16T05:45:11;5.20;99.90
26378;DHT22;14078;50.974;6.786;2023-01-16T05:47:38;5.20;99.90
26378;DHT22;14078;50.974;6.786;2023-01-16T05:50:04;5.20;99.90
26378;DHT22;14078;50.974;6.786;2023-01-16T05:52:32;5.20;99.90
26378;DHT22;14078;50.974;6.786;2023-01-16T05:54:59;5.20;99.90
26378;DHT22;14078;50.974;6.786;2023-01-16T05:57:25;5.20;99.90
26378;DHT22;14078;50.974;6.786;2023-01-16T05:59:52;5.30;99.90
26378;DHT22;14078;50.974;6.786;2023-01-16T06:02:19;5.30;99.90
26378;DHT22;14078;50.974;6.786;2023-01-16T06:04:46;5.30;99.90
26378;DHT22;14078;50.974;6.786;2023-01-16T06:07:12;5.30;99.90
26378;DHT22;14078;50.974;6.786;2023-01-16T06:09:40;5.30;99.90
26378;DHT22;14078;50.974;6.786;2023-01-16T06:12:07;5.40;99.90
26378;DHT22;14078;50.974;6.786;2023-01-16T06:14:34;5.40;99.90
26378;DHT22;14078;50.974;6.786;2023-01-16T06:17:00;5.30;99.90
26378;DHT22;14078;50.974;6.786;2023-01-16T06:19:27;5.30;99.90
26378;DHT22;14078;50.974;6.786;2023-01-16T06:21:53;5.30;99.90
26378;DHT22;14078;50.974;6.786;2023-01-16T06:24:20;5.20;99.90
26378;DHT22;14078;50.974;6.786;2023-01-16T06:26:48;5.20;99.90
26378;DHT22;14078;50.974;6.786;2023-01-16T06:29:14;5.20;99.90
26378;DHT22;14078;50.974;6.786;2023-01-16T06:31:41;5.30;99.90
26378;DHT22;14078;50.974;6.786;2023-01-16T06:34:07;5.30;99.90
26378;DHT22;14078;50.974;6.786;2023-01-16T06:36:34;5.30;99.90
26378;DHT22;14078;50.974;6.786;2023-01-16T06:39:00;5.30;99.90
26378;DHT22;14078;50.974;6.786;2023-01-16T06:41:27;5.40;99.90
26378;DHT22;14078;50.974;6.786;2023-01-16T06:43:55;5.40;99.90
26378;DHT22;14078;50.974;6.786;2023-01-16T06:46:21;5.40;99.90
26378;DHT22;14078;50.974;6.786;2023-01-16T06:48:48;5.40;99.90
26378;DHT22;14078;50.974;6.786;2023-01-16T06:51:14;5.40;99.90
26378;DHT22;14078;50.974;6.786;2023-01-16T06:53:41;5.50;99.90
26378;DHT22;14078;50.974;6.786;2023-01-16T06:56:07;5.50;99.90
26378;DHT22;14078;50.974;6.786;2023-01-16T06:58:34;5.50;99.90
26378;DHT22;14078;50.974;6.786;2023-01-16T07:01:02;5.50;99.90
26378;DHT22;14078;50.974;6.786;2023-01-16T07:03:28;5.50;99.90
26378;DHT22;14078;50.974;6.786;2023-01-16T07:05:55;5.50;99.90
26378;DHT22;14078;50.974;6.786;2023-01-16T07:08:21;5.40;99.90
26378;DHT22;14078;50.974;6.786;2023-01-16T07:10:48;5.40;99.90
26378;DHT22;14078;50.974;6.786;2023-01-16T07:13:14;5.40;99.90
26378;DHT22;14078;50.974;6.786;2023-01-16T07:15:43;5.40;99.90
26378;DHT22;14078;50.974;6.786;2023-01-16T07:18:39;5.40;99.90
26378;DHT22;14078;50.974;6.786;2023-01-16T07:21:25;5.40;99.90
26378;DHT22;14078;50.974;6.786;2023-01-16T07:24:10;5.40;99.90
26378;DHT22;14078;50.974;6.786;2023-01-16T07:26:40;5.50;99.90
26378;DHT22;14078;50.974;6.786;2023-01-16T07:29:07;5.50;99.90
26378;DHT22;14078;50.974;6.786;2023-01-16T07:31:34;5.50;99.90
26378;DHT22;14078;50.974;6.786;2023-01-16T07:34:03;5.50;99.90
26378;DHT22;14078;50.974;6.786;2023-01-16T07:36:29;5.50;99.90
26378;DHT22;14078;50.974;6.786;2023-01-16T07:38:56;5.60;99.90
26378;DHT22;14078;50.974;6.786;2023-01-16T07:41:22;5.60;99.90
26378;DHT22;14078;50.974;6.786;2023-01-16T07:43:49;5.60;99.90
26378;DHT22;14078;50.974;6.786;2023-01-16T07:46:16;5.50;99.90
26378;DHT22;14078;50.974;6.786;2023-01-16T07:48:42;5.50;99.90
26378;DHT22;14078;50.974;6.786;2023-01-16T07:51:10;5.40;99.90
26378;DHT22;14078;50.974;6.786;2023-01-16T07:53:37;5.40;99.90
26378;DHT22;14078;50.974;6.786;2023-01-16T07:56:03;5.40;99.90
26378;DHT22;14078;50.974;6.786;2023-01-16T07:58:30;5.30;99.90
26378;DHT22;14078;50.974;6.786;2023-01-16T08:00:57;5.30;99.90
26378;DHT22;14078;50.974;6.786;2023-01-16T08:03:24;5.30;99.90
26378;DHT22;14078;50.974;6.786;2023-01-16T08:05:54;5.40;99.90
26378;DHT22;14078;50.974;6.786;2023-01-16T08:08:22;5.30;99.90
26378;DHT22;14078;50.974;6.786;2023-01-16T08:10:52;5.30;99.90
26378;DHT22;14078;50.974;6.786;2023-01-16T08:13:19;5.30;99.90
26378;DHT22;14078;50.974;6.786;2023-01-16T08:15:45;5.30;99.90
26378;DHT22;14078;50.974;6.786;2023-01-16T08:18:12;5.30;99.90
26378;DHT22;14078;50.974;6.786;2023-01-16T08:20:38;5.30;99.90
26378;DHT22;14078;50.974;6.786;2023-01-16T08:23:06;5.30;99.90
26378;DHT22;14078;50.974;6.786;2023-01-16T08:25:34;5.30;99.90
26378;DHT22;14078;50.974;6.786;2023-01-16T08:28:00;5.30;99.90
26378;DHT22;14078;50.974;6.786;2023-01-16T08:30:27;5.30;99.90
26378;DHT22;14078;50.974;6.786;2023-01-16T08:32:56;5.30;99.90
26378;DHT22;14078;50.974;6.786;2023-01-16T08:35:23;5.30;99.90
26378;DHT22;14078;50.974;6.786;2023-01-16T08:37:49;5.40;99.90
26378;DHT22;14078;50.974;6.786;2023-01-16T08:40:16;5.40;99.90
26378;DHT22;14078;50.974;6.786;2023-01-16T08:42:44;5.40;99.90
26378;DHT22;14078;50.974;6.786;2023-01-16T08:45:28;5.40;99.90
26378;DHT22;14078;50.974;6.786;2023-01-16T08:48:13;5.30;99.90
26378;DHT22;14078;50.974;6.786;2023-01-16T08:50:59;5.30;99.90
26378;DHT22;14078;50.974;6.786;2023-01-16T08:53:43;5.40;99.90
26378;DHT22;14078;50.974;6.786;2023-01-16T08:56:10;5.30;99.90
26378;DHT22;14078;50.974;6.786;2023-01-16T08:58:38;5.40;99.90
26378;DHT22;14078;50.974;6.786;2023-01-16T09:01:04;5.30;99.90
26378;DHT22;14078;50.974;6.786;2023-01-16T09:03:31;5.30;99.90
26378;DHT22;14078;50.974;6.786;2023-01-16T09:05:58;5.20;99.90
26378;DHT22;14078;50.974;6.786;2023-01-16T09:08:25;5.20;99.90
26378;DHT22;14078;50.974;6.786;2023-01-16T09:10:52;5.20;99.90
26378;DHT22;14078;50.974;6.786;2023-01-16T09:13:37;5.10;99.90
26378;DHT22;14078;50.974;6.786;2023-01-16T09:16:16;5.20;99.90
26378;DHT22;14078;50.974;6.786;2023-01-16T09:18:43;5.20;99.90
26378;DHT22;14078;50.974;6.786;2023-01-16T09:21:10;5.20;99.90
26378;DHT22;14078;50.974;6.786;2023-01-16T09:23:36;5.20;99.90
26378;DHT22;14078;50.974;6.786;2023-01-16T09:26:03;5.20;99.90
26378;DHT22;14078;50.974;6.786;2023-01-16T09:28:29;5.20;99.90
26378;DHT22;14078;50.974;6.786;2023-01-16T09:30:57;5.20;99.90
26378;DHT22;14078;50.974;6.786;2023-01-16T09:33:24;5.20;99.90
26378;DHT22;14078;50.974;6.786;2023-01-16T09:35:51;5.20;99.90
26378;DHT22;14078;50.974;6.786;2023-01-16T09:38:17;5.20;99.90
26378;DHT22;14078;50.974;6.786;2023-01-16T09:40:44;5.10;99.90
26378;DHT22;14078;50.974;6.786;2023-01-16T09:43:17;5.10;99.90
26378;DHT22;14078;50.974;6.786;2023-01-16T09:46:10;5.10;99.90
26378;DHT22;14078;50.974;6.786;2023-01-16T09:48:38;5.20;99.90
26378;DHT22;14078;50.974;6.786;2023-01-16T09:51:07;5.20;99.90
26378;DHT22;14078;50.974;6.786;2023-01-16T09:53:38;5.20;99.90
26378;DHT22;14078;50.974;6.786;2023-01-16T09:56:27;5.20;99.90
26378;DHT22;14078;50.974;6.786;2023-01-16T09:59:19;5.20;99.90
26378;DHT22;14078;50.974;6.786;2023-01-16T10:01:51;5.20;99.90
26378;DHT22;14078;50.974;6.786;2023-01-16T10:04:20;5.20;99.90
26378;DHT22;14078;50.974;6.786;2023-01-16T10:06:50;5.20;99.90
26378;DHT22;14078;50.974;6.786;2023-01-16T10:09:19;5.20;99.90
26378;DHT22;14078;50.974;6.786;2023-01-16T10:11:50;5.20;99.90
26378;DHT22;14078;50.974;6.786;2023-01-16T10:14:29;5.20;99.90
26378;DHT22;14078;50.974;6.786;2023-01-16T10:17:01;5.20;99.90
26378;DHT22;14078;50.974;6.786;2023-01-16T10:19:34;5.30;99.90
26378;DHT22;14078;50.974;6.786;2023-01-16T10:22:12;5.30;99.90
26378;DHT22;14078;50.974;6.786;2023-01-16T10:24:44;5.30;99.90
26378;DHT22;14078;50.974;6.786;2023-01-16T10:27:16;5.30;99.90
26378;DHT22;14078;50.974;6.786;2023-01-16T10:29:44;5.30;99.90
26378;DHT22;14078;50.974;6.786;2023-01-16T10:32:17;5.30;99.90
26378;DHT22;14078;50.974;6.786;2023-01-16T10:34:49;5.40;99.90
26378;DHT22;14078;50.974;6.786;2023-01-16T10:37:17;5.40;99.90
26378;DHT22;14078;50.974;6.786;2023-01-16T10:39:44;5.40;99.90
26378;DHT22;14078;50.974;6.786;2023-01-16T10:42:12;5.40;99.90
26378;DHT22;14078;50.974;6.786;2023-01-16T10:44:58;5.40;99.90
26378;DHT22;14078;50.974;6.786;2023-01-16T10:47:43;5.40;99.90
26378;DHT22;14078;50.974;6.786;2023-01-16T10:50:28;5.40;99.90
26378;DHT22;14078;50.974;6.786;2023-01-16T10:52:55;5.50;99.90
26378;DHT22;14078;50.974;6.786;2023-01-16T10:55:22;5.50;99.90
26378;DHT22;14078;50.974;6.786;2023-01-16T10:57:49;5.50;99.90
26378;DHT22;14078;50.974;6.786;2023-01-16T11:00:17;5.60;99.90
26378;DHT22;14078;50.974;6.786;2023-01-16T11:02:47;5.70;99.90
26378;DHT22;14078;50.974;6.786;2023-01-16T11:05:24;5.70;99.90
26378;DHT22;14078;50.974;6.786;2023-01-16T11:07:52;5.70;99.90
26378;DHT22;14078;50.974;6.786;2023-01-16T11:10:19;5.70;99.90
26378;DHT22;14078;50.974;6.786;2023-01-16T11:12:46;5.70;99.90
26378;DHT22;14078;50.974;6.786;2023-01-16T11:15:30;5.70;99.90
26378;DHT22;14078;50.974;6.786;2023-01-16T11:18:20;5.70;99.90
26378;DHT22;14078;50.974;6.786;2023-01-16T11:20:57;5.80;99.90
26378;DHT22;14078;50.974;6.786;2023-01-16T11:23:26;6.00;99.90
26378;DHT22;14078;50.974;6.786;2023-01-16T11:25:54;6.10;99.90
26378;DHT22;14078;50.974;6.786;2023-01-16T11:28:24;6.30;99.90
26378;DHT22;14078;50.974;6.786;2023-01-16T11:30:52;6.40;99.90
26378;DHT22;14078;50.974;6.786;2023-01-16T11:33:21;6.50;99.90
26378;DHT22;14078;50.974;6.786;2023-01-16T11:35:53;6.60;99.90
26378;DHT22;14078;50.974;6.786;2023-01-16T11:38:20;6.50;99.90
26378;DHT22;14078;50.974;6.786;2023-01-16T11:40:47;6.50;99.90
26378;DHT22;14078;50.974;6.786;2023-01-16T11:43:15;6.30;99.90
26378;DHT22;14078;50.974;6.786;2023-01-16T11:46:01;6.10;99.90
26378;DHT22;14078;50.974;6.786;2023-01-16T11:48:40;6.00;99.90
26378;DHT22;14078;50.974;6.786;2023-01-16T11:51:10;6.00;99.90
26378;DHT22;14078;50.974;6.786;2023-01-16T11:53:38;6.00;99.90
26378;DHT22;14078;50.974;6.786;2023-01-16T11:58:50;5.90;99.90
26378;DHT22;14078;50.974;6.786;2023-01-16T12:01:20;5.80;99.90
26378;DHT22;14078;50.974;6.786;2023-01-16T12:03:55;5.80;99.90
26378;DHT22;14078;50.974;6.786;2023-01-16T12:06:34;5.80;99.90
26378;DHT22;14078;50.974;6.786;2023-01-16T12:09:07;5.70;99.90
26378;DHT22;14078;50.974;6.786;2023-01-16T12:11:44;5.70;99.90
26378;DHT22;14078;50.974;6.786;2023-01-16T12:14:14;5.80;99.90
26378;DHT22;14078;50.974;6.786;2023-01-16T12:16:48;5.80;99.90
26378;DHT22;14078;50.974;6.786;2023-01-16T12:19:26;5.90;99.90
26378;DHT22;14078;50.974;6.786;2023-01-16T12:21:56;5.90;99.90
26378;DHT22;14078;50.974;6.786;2023-01-16T12:24:30;5.90;99.90
26378;DHT22;14078;50.974;6.786;2023-01-16T12:27:02;5.90;99.90
26378;DHT22;14078;50.974;6.786;2023-01-16T12:29:34;5.90;99.90
26378;DHT22;14078;50.974;6.786;2023-01-16T12:32:09;5.90;99.90
26378;DHT22;14078;50.974;6.786;2023-01-16T12:34:47;5.90;99.90
26378;DHT22;14078;50.974;6.786;2023-01-16T12:37:18;5.90;99.90
26378;DHT22;14078;50.974;6.786;2023-01-16T12:39:51;6.00;99.90
26378;DHT22;14078;50.974;6.786;2023-01-16T12:42:23;6.00;99.90
26378;DHT22;14078;50.974;6.786;2023-01-16T12:45:14;5.90;99.90
26378;DHT22;14078;50.974;6.786;2023-01-16T12:47:53;5.90;99.90
26378;DHT22;14078;50.974;6.786;2023-01-16T12:50:26;5.80;99.90
26378;DHT22;14078;50.974;6.786;2023-01-16T12:53:06;5.80;99.90
26378;DHT22;14078;50.974;6.786;2023-01-16T12:55:37;5.70;99.90
26378;DHT22;14078;50.974;6.786;2023-01-16T12:58:09;5.80;99.90
26378;DHT22;14078;50.974;6.786;2023-01-16T13:00:38;5.80;99.90
26378;DHT22;14078;50.974;6.786;2023-01-16T13:03:09;5.90;99.90
26378;DHT22;14078;50.974;6.786;2023-01-16T13:05:40;5.80;99.90
26378;DHT22;14078;50.974;6.786;2023-01-16T13:08:11;5.90;99.90
26378;DHT22;14078;50.974;6.786;2023-01-16T13:10:41;5.90;99.90
26378;DHT22;14078;50.974;6.786;2023-01-16T13:13:26;5.90;99.90
26378;DHT22;14078;50.974;6.786;2023-01-16T13:16:02;5.90;99.90
26378;DHT22;14078;50.974;6.786;2023-01-16T13:18:29;5.90;99.90
26378;DHT22;14078;50.974;6.786;2023-01-16T13:21:00;5.90;99.90
26378;DHT22;14078;50.974;6.786;2023-01-16T13:23:29;5.90;99.90
26378;DHT22;14078;50.974;6.786;2023-01-16T13:25:57;6.00;99.90
26378;DHT22;14078;50.974;6.786;2023-01-16T13:28:32;6.00;99.90
26378;DHT22;14078;50.974;6.786;2023-01-16T13:31:03;6.00;99.90
26378;DHT22;14078;50.974;6.786;2023-01-16T13:33:31;5.90;99.90
26378;DHT22;14078;50.974;6.786;2023-01-16T13:36:02;5.90;99.90
26378;DHT22;14078;50.974;6.786;2023-01-16T13:41:20;5.90;99.90
26378;DHT22;14078;50.974;6.786;2023-01-16T13:43:49;5.80;99.90
26378;DHT22;14078;50.974;6.786;2023-01-16T13:46:34;5.80;99.90
26378;DHT22;14078;50.974;6.786;2023-01-16T13:49:03;5.70;99.90
26378;DHT22;14078;50.974;6.786;2023-01-16T13:51:32;5.70;99.90
26378;DHT22;14078;50.974;6.786;2023-01-16T13:54:07;5.70;99.90
26378;DHT22;14078;50.974;6.786;2023-01-16T13:56:35;5.70;99.90
26378;DHT22;14078;50.974;6.786;2023-01-16T13:59:06;5.70;99.90
26378;DHT22;14078;50.974;6.786;2023-01-16T14:01:34;5.70;99.90
26378;DHT22;14078;50.974;6.786;2023-01-16T14:04:09;5.60;99.90
26378;DHT22;14078;50.974;6.786;2023-01-16T14:06:43;5.70;99.90
26378;DHT22;14078;50.974;6.786;2023-01-16T14:09:13;5.60;99.90
26378;DHT22;14078;50.974;6.786;2023-01-16T14:12:00;5.60;99.90
26378;DHT22;14078;50.974;6.786;2023-01-16T14:14:28;5.60;99.90
26378;DHT22;14078;50.974;6.786;2023-01-16T14:17:21;5.60;99.90
26378;DHT22;14078;50.974;6.786;2023-01-16T14:19:53;5.60;99.90
26378;DHT22;14078;50.974;6.786;2023-01-16T14:22:21;5.60;99.90
26378;DHT22;14078;50.974;6.786;2023-01-16T14:25:06;5.60;99.90
26378;DHT22;14078;50.974;6.786;2023-01-16T14:27:37;5.50;99.90
26378;DHT22;14078;50.974;6.786;2023-01-16T14:30:04;5.40;99.90
26378;DHT22;14078;50.974;6.786;2023-01-16T14:32:32;5.50;99.90
26378;DHT22;14078;50.974;6.786;2023-01-16T14:35:00;5.50;99.90
26378;DHT22;14078;50.974;6.786;2023-01-16T14:37:30;5.50;99.90
26378;DHT22;14078;50.974;6.786;2023-01-16T14:39:58;5.50;99.90
26378;DHT22;14078;50.974;6.786;2023-01-16T14:42:26;5.50;99.90
26378;DHT22;14078;50.974;6.786;2023-01-16T14:45:21;5.60;99.90
26378;DHT22;14078;50.974;6.786;2023-01-16T14:48:09;5.60;99.90
26378;DHT22;14078;50.974;6.786;2023-01-16T14:50:54;5.60;99.90
26378;DHT22;14078;50.974;6.786;2023-01-16T14:53:40;5.70;99.90
26378;DHT22;14078;50.974;6.786;2023-01-16T14:56:25;5.70;99.90
26378;DHT22;14078;50.974;6.786;2023-01-16T14:58:54;5.70;99.90
26378;DHT22;14078;50.974;6.786;2023-01-16T15:01:25;5.70;99.90
26378;DHT22;14078;50.974;6.786;2023-01-16T15:04:10;5.70;99.90
26378;DHT22;14078;50.974;6.786;2023-01-16T15:06:39;5.80;99.90
26378;DHT22;14078;50.974;6.786;2023-01-16T15:09:11;5.80;99.90
26378;DHT22;14078;50.974;6.786;2023-01-16T15:11:41;5.70;99.90
26378;DHT22;14078;50.974;6.786;2023-01-16T15:14:11;5.70;99.90
26378;DHT22;14078;50.974;6.786;2023-01-16T15:16:58;5.70;99.90
26378;DHT22;14078;50.974;6.786;2023-01-16T15:19:57;5.70;99.90
26378;DHT22;14078;50.974;6.786;2023-01-16T15:22:42;5.60;99.90
26378;DHT22;14078;50.974;6.786;2023-01-16T15:25:12;5.70;99.90
26378;DHT22;14078;50.974;6.786;2023-01-16T15:27:40;5.70;99.90
26378;DHT22;14078;50.974;6.786;2023-01-16T15:30:09;5.60;99.90
26378;DHT22;14078;50.974;6.786;2023-01-16T15:32:51;5.70;99.90
26378;DHT22;14078;50.974;6.786;2023-01-16T15:35:20;5.60;99.90
26378;DHT22;14078;50.974;6.786;2023-01-16T15:37:48;5.60;99.90
26378;DHT22;14078;50.974;6.786;2023-01-16T15:40:23;5.70;99.90
26378;DHT22;14078;50.974;6.786;2023-01-16T15:42:50;5.60;99.90
26378;DHT22;14078;50.974;6.786;2023-01-16T15:45:35;5.60;99.90
26378;DHT22;14078;50.974;6.786;2023-01-16T15:48:28;5.60;99.90
26378;DHT22;14078;50.974;6.786;2023-01-16T15:51:01;5.50;99.90
26378;DHT22;14078;50.974;6.786;2023-01-16T15:53:30;5.50;99.90
26378;DHT22;14078;50.974;6.786;2023-01-16T15:56:00;5.50;99.90
26378;DHT22;14078;50.974;6.786;2023-01-16T15:58:27;5.50;99.90
26378;DHT22;14078;50.974;6.786;2023-01-16T16:00:55;5.50;99.90
26378;DHT22;14078;50.974;6.786;2023-01-16T16:03:22;5.40;99.90
26378;DHT22;14078;50.974;6.786;2023-01-16T16:05:50;5.40;99.90
26378;DHT22;14078;50.974;6.786;2023-01-16T16:08:19;5.40;99.90
26378;DHT22;14078;50.974;6.786;2023-01-16T16:10:46;5.40;99.90
26378;DHT22;14078;50.974;6.786;2023-01-16T16:13:32;5.50;99.90
26378;DHT22;14078;50.974;6.786;2023-01-16T16:15:59;5.50;99.90
26378;DHT22;14078;50.974;6.786;2023-01-16T16:18:53;5.50;99.90